Time;durP1;ratioP1;P1;durP2;ratioP2;P2;SDS_P1;SDS_P2;PMS_P1;PMS_P2;Temp;Humidity;BMP_temperature;BMP_pressure;BME280_temperature;BME280_humidity;BME280_pressure;Samples;Min_cycle;Max_cycle;Signal;HPM_P1;HPM_P2
2021/11/22 00:00:34;;;;;;;10.10;1.85;;;3.50;99.90;;;;;;4981375;28;20110;-94
2021/11/22 00:03:00;;;;;;;9.52;1.33;;;3.50;99.90;;;;;;4981260;28;20069;-93
2021/11/22 00:05:27;;;;;;;7.10;1.17;;;3.50;99.90;;;;;;4980550;28;20473;-94
2021/11/22 00:07:53;;;;;;;4.43;1.05;;;3.50;99.90;;;;;;4981312;28;20027;-95
2021/11/22 00:10:19;;;;;;;6.32;1.00;;;3.50;99.90;;;;;;4982080;28;20023;-93
2021/11/22 00:12:45;;;;;;;8.48;1.05;;;3.40;99.90;;;;;;4966171;28;20039;-94
2021/11/22 00:15:14;;;;;;;5.70;1.10;;;3.40;99.90;;;;;;4999667;28;20014;-94
2021/11/22 00:17:41;;;;;;;6.82;1.20;;;3.40;99.90;;;;;;4999370;28;20007;-94
2021/11/22 00:20:15;;;;;;;7.43;1.25;;;3.40;99.90;;;;;;4994521;28;20031;-94
2021/11/22 00:22:43;;;;;;;4.22;1.13;;;3.40;99.90;;;;;;4988550;28;20019;-94
2021/11/22 00:25:10;;;;;;;8.90;1.20;;;3.40;99.90;;;;;;4986972;28;20042;-94
2021/11/22 00:27:36;;;;;;;3.08;1.10;;;3.40;99.90;;;;;;4970739;28;20039;-94
2021/11/22 00:30:02;;;;;;;6.28;1.05;;;3.40;99.90;;;;;;4982629;28;20113;-94
2021/11/22 00:32:29;;;;;;;9.35;1.15;;;3.40;99.90;;;;;;4982354;28;20054;-94
2021/11/22 00:34:56;;;;;;;9.30;0.93;;;3.40;99.90;;;;;;4980571;28;20117;-94
2021/11/22 00:37:25;;;;;;;3.10;0.90;;;3.40;99.90;;;;;;4981649;28;20031;-93
2021/11/22 00:39:51;;;;;;;8.75;1.02;;;3.30;99.90;;;;;;4981810;28;20023;-94
2021/11/22 00:42:18;;;;;;;6.65;0.80;;;3.30;99.90;;;;;;4980892;28;20026;-95
2021/11/22 00:44:44;;;;;;;8.70;1.30;;;3.30;99.90;;;;;;4983291;28;20031;-95
2021/11/22 00:47:10;;;;;;;3.08;0.88;;;3.30;99.90;;;;;;4981076;28;20439;-95
2021/11/22 00:49:38;;;;;;;9.35;1.25;;;3.30;99.90;;;;;;4986082;28;20035;-95
2021/11/22 00:52:05;;;;;;;6.80;2.00;;;3.30;99.90;;;;;;4984472;28;20034;-95
2021/11/22 00:54:33;;;;;;;7.47;1.73;;;3.40;99.90;;;;;;4989536;28;20086;-94
2021/11/22 00:56:59;;;;;;;7.43;1.23;;;3.40;99.90;;;;;;4989270;28;20062;-94
2021/11/22 00:59:25;;;;;;;9.45;0.77;;;3.40;99.90;;;;;;4983948;28;20031;-95
2021/11/22 01:01:51;;;;;;;9.63;1.17;;;3.40;99.90;;;;;;4982476;28;20039;-94
2021/11/22 01:04:18;;;;;;;2.17;0.95;;;3.40;99.90;;;;;;4980594;28;20177;-94
2021/11/22 01:06:44;;;;;;;7.80;1.27;;;3.40;99.90;;;;;;4967165;28;20451;-95
2021/11/22 01:09:09;;;;;;;4.35;1.08;;;3.40;99.90;;;;;;4979905;28;20023;-94
2021/11/22 01:11:35;;;;;;;8.90;0.90;;;3.40;99.90;;;;;;4980578;28;20022;-95
2021/11/22 01:14:02;;;;;;;6.63;1.00;;;3.40;99.90;;;;;;4979857;28;20030;-95
2021/11/22 01:16:30;;;;;;;7.95;1.00;;;3.40;99.90;;;;;;4980318;28;20050;-94
2021/11/22 01:18:57;;;;;;;8.80;1.20;;;3.40;99.90;;;;;;4985765;28;20054;-96
2021/11/22 01:21:24;;;;;;;10.30;1.30;;;3.40;99.90;;;;;;4954101;29;20130;-95
2021/11/22 01:23:50;;;;;;;9.68;1.08;;;3.40;99.90;;;;;;4948171;29;20042;-95
2021/11/22 01:26:18;;;;;;;7.72;1.00;;;3.40;99.90;;;;;;4966788;29;20032;-95
2021/11/22 01:28:46;;;;;;;3.53;0.93;;;3.40;99.90;;;;;;4965928;29;20034;-95
2021/11/22 01:31:14;;;;;;;5.78;1.25;;;3.40;99.90;;;;;;4966536;29;20115;-95
2021/11/22 01:33:43;;;;;;;3.33;0.98;;;3.50;99.90;;;;;;4967708;29;20030;-95
2021/11/22 01:36:12;;;;;;;13.88;2.35;;;3.50;99.90;;;;;;4969830;29;20054;-95
2021/11/22 01:38:38;;;;;;;7.90;1.50;;;3.50;99.90;;;;;;4948583;29;20039;-94
2021/11/22 01:41:05;;;;;;;5.10;0.95;;;3.50;99.90;;;;;;4961899;29;20027;-95
2021/11/22 01:43:32;;;;;;;8.20;1.60;;;3.50;99.90;;;;;;4946068;29;20501;-94
2021/11/22 01:45:58;;;;;;;6.38;1.33;;;3.50;99.90;;;;;;4960150;29;20035;-95
2021/11/22 01:48:25;;;;;;;4.30;1.17;;;3.50;99.90;;;;;;4959026;29;20477;-93
2021/11/22 01:50:53;;;;;;;7.53;1.23;;;3.50;99.90;;;;;;4969518;29;20489;-94
2021/11/22 01:53:23;;;;;;;6.10;0.88;;;3.60;99.90;;;;;;4950868;29;20020;-94
2021/11/22 01:56:02;;;;;;;6.68;1.08;;;3.60;99.90;;;;;;4947258;29;20039;-96
2021/11/22 01:58:29;;;;;;;5.22;1.00;;;3.60;99.90;;;;;;4964592;29;20058;-94
2021/11/22 02:00:57;;;;;;;10.70;1.50;;;3.60;99.90;;;;;;4950481;29;20032;-96
2021/11/22 02:03:27;;;;;;;9.70;0.95;;;3.60;99.90;;;;;;4975004;28;20039;-96
2021/11/22 02:09:04;;;;;;;7.28;1.23;;;3.60;99.90;;;;;;5926324;23;20054;-94
2021/11/22 02:11:30;;;;;;;9.52;1.15;;;3.60;99.90;;;;;;5033384;28;20061;-95
2021/11/22 02:14:04;;;;;;;5.32;0.80;;;3.60;99.90;;;;;;5019760;28;20034;-95
2021/11/22 02:16:34;;;;;;;14.45;1.27;;;3.60;99.90;;;;;;5018918;28;20041;-96
2021/11/22 02:19:02;;;;;;;2.72;0.70;;;3.50;99.90;;;;;;5020757;28;20026;-95
2021/11/22 02:21:28;;;;;;;4.90;0.98;;;3.50;99.90;;;;;;5020202;28;20022;-95
2021/11/22 02:23:57;;;;;;;5.50;1.50;;;3.50;99.90;;;;;;5017563;28;20053;-96
2021/11/22 02:26:26;;;;;;;8.02;1.00;;;3.50;99.90;;;;;;5019315;28;20015;-96
2021/11/22 02:28:54;;;;;;;11.32;1.70;;;3.50;99.90;;;;;;5007494;28;20498;-94
2021/11/22 02:31:20;;;;;;;4.63;1.02;;;3.50;99.90;;;;;;4992591;28;20057;-94
2021/11/22 02:33:54;;;;;;;7.88;1.00;;;3.40;99.90;;;;;;4992435;28;20018;-95
2021/11/22 02:36:20;;;;;;;6.40;1.05;;;3.40;99.90;;;;;;4997420;28;20030;-94
2021/11/22 02:39:05;;;;;;;7.55;0.95;;;3.40;99.90;;;;;;4997875;28;20030;-94
2021/11/22 02:41:41;;;;;;;5.63;1.00;;;3.40;99.90;;;;;;4997372;28;20015;-96
2021/11/22 02:44:25;;;;;;;9.85;1.30;;;3.40;99.90;;;;;;4966341;28;20089;-95
2021/11/22 02:46:52;;;;;;;7.43;1.02;;;3.40;99.90;;;;;;5013038;28;20090;-95
2021/11/22 02:49:44;;;;;;;6.82;0.90;;;3.50;99.90;;;;;;5009583;28;20033;-95
2021/11/22 02:52:12;;;;;;;6.88;1.05;;;3.40;99.90;;;;;;4998097;28;20034;-95
2021/11/22 02:54:42;;;;;;;8.48;1.40;;;3.40;99.90;;;;;;4974560;28;20030;-95
2021/11/22 02:57:09;;;;;;;7.95;1.17;;;3.40;99.90;;;;;;4984952;28;20038;-94
2021/11/22 02:59:39;;;;;;;4.35;0.65;;;3.40;99.90;;;;;;4986234;28;20027;-95
2021/11/22 03:02:07;;;;;;;3.30;1.02;;;3.30;99.90;;;;;;4980927;28;20053;-95
2021/11/22 03:04:35;;;;;;;4.15;0.80;;;3.30;99.90;;;;;;4980542;28;20037;-95
2021/11/22 03:07:01;;;;;;;3.97;0.68;;;3.30;99.90;;;;;;4981268;28;20022;-94
2021/11/22 03:09:27;;;;;;;9.15;1.35;;;3.30;99.90;;;;;;4982935;28;20046;-95
2021/11/22 03:11:56;;;;;;;4.10;0.80;;;3.30;99.90;;;;;;4986244;28;20081;-95
2021/11/22 03:14:24;;;;;;;5.20;0.90;;;3.30;99.90;;;;;;4984906;28;20114;-94
2021/11/22 03:16:50;;;;;;;11.00;1.13;;;3.30;99.90;;;;;;4979258;28;20038;-95
2021/11/22 03:19:17;;;;;;;16.27;1.33;;;3.30;99.90;;;;;;4983449;28;20073;-95
2021/11/22 03:21:44;;;;;;;7.53;1.10;;;3.30;99.90;;;;;;4987056;28;20045;-95
2021/11/22 03:24:10;;;;;;;9.60;0.98;;;3.30;99.90;;;;;;4986591;28;20027;-96
2021/11/22 03:26:36;;;;;;;10.38;0.95;;;3.30;99.90;;;;;;4991481;28;20090;-95
2021/11/22 03:29:01;;;;;;;11.10;0.98;;;3.30;99.90;;;;;;4985727;28;20165;-96
2021/11/22 03:31:27;;;;;;;4.35;0.90;;;3.30;99.90;;;;;;4984669;28;20027;-96
2021/11/22 03:33:53;;;;;;;4.70;0.82;;;3.30;99.90;;;;;;4985571;28;20037;-95
2021/11/22 03:36:22;;;;;;;5.47;0.93;;;3.40;99.90;;;;;;4985032;28;20030;-95
2021/11/22 03:38:48;;;;;;;4.00;1.00;;;3.30;99.90;;;;;;4982984;28;20026;-95
2021/11/22 03:41:16;;;;;;;5.47;0.90;;;3.30;99.90;;;;;;4983459;28;20030;-95
2021/11/22 03:43:50;;;;;;;5.72;0.77;;;3.30;99.90;;;;;;4985297;28;20392;-95
2021/11/22 03:46:18;;;;;;;7.32;0.90;;;3.30;99.90;;;;;;4984468;28;20030;-95
2021/11/22 03:48:44;;;;;;;11.48;1.20;;;3.30;99.90;;;;;;4984231;28;20404;-96
2021/11/22 03:51:11;;;;;;;6.22;0.90;;;3.30;99.90;;;;;;4996267;28;20230;-95
2021/11/22 03:53:37;;;;;;;7.60;1.73;;;3.30;99.90;;;;;;4997429;28;20034;-95
2021/11/22 03:56:03;;;;;;;7.35;1.10;;;3.30;99.90;;;;;;4993409;28;20027;-94
2021/11/22 03:58:28;;;;;;;7.57;1.13;;;3.30;99.90;;;;;;4986808;28;20026;-95
2021/11/22 04:00:54;;;;;;;6.35;1.00;;;3.20;99.90;;;;;;4987861;28;20026;-95
2021/11/22 04:03:21;;;;;;;13.23;1.75;;;3.30;99.90;;;;;;4984269;28;20137;-95
2021/11/22 04:05:48;;;;;;;7.80;0.80;;;3.30;99.90;;;;;;4980990;28;20431;-94
2021/11/22 04:08:15;;;;;;;6.95;1.02;;;3.30;99.90;;;;;;4981636;28;20045;-95
2021/11/22 04:10:40;;;;;;;7.72;0.95;;;3.20;99.90;;;;;;4982047;28;20480;-95
2021/11/22 04:13:07;;;;;;;5.00;1.25;;;3.20;99.90;;;;;;4983452;28;20029;-95
2021/11/22 04:15:34;;;;;;;7.80;0.80;;;3.20;99.90;;;;;;4981730;28;20026;-95
2021/11/22 04:17:59;;;;;;;5.72;1.00;;;3.20;99.90;;;;;;4980540;28;20034;-95
2021/11/22 04:20:26;;;;;;;8.52;0.70;;;3.20;99.90;;;;;;4981082;28;20033;-95
2021/11/22 04:22:51;;;;;;;6.25;1.67;;;3.20;99.90;;;;;;4979703;28;20045;-93
2021/11/22 04:25:19;;;;;;;6.18;0.95;;;3.20;99.90;;;;;;4979490;28;20026;-94
2021/11/22 04:27:46;;;;;;;5.82;0.75;;;3.30;99.90;;;;;;4980246;28;20027;-94
2021/11/22 04:30:12;;;;;;;10.73;1.10;;;3.30;99.90;;;;;;4979176;28;20023;-94
2021/11/22 04:32:38;;;;;;;9.02;0.77;;;3.30;99.90;;;;;;4979805;28;20510;-93
2021/11/22 04:35:07;;;;;;;5.18;0.95;;;3.40;99.90;;;;;;4993786;28;20013;-94
2021/11/22 04:37:34;;;;;;;5.70;1.33;;;3.40;99.90;;;;;;5001250;28;20019;-95
2021/11/22 04:40:00;;;;;;;9.13;0.93;;;3.40;99.90;;;;;;5000711;28;20031;-96
2021/11/22 04:42:26;;;;;;;6.75;1.15;;;3.50;99.90;;;;;;4982120;28;20058;-93
2021/11/22 04:44:53;;;;;;;6.82;0.82;;;3.50;99.90;;;;;;4980529;28;20023;-95
2021/11/22 04:47:20;;;;;;;4.38;0.80;;;3.50;99.90;;;;;;4980337;28;20026;-93
2021/11/22 04:49:51;;;;;;;8.68;0.98;;;3.50;99.90;;;;;;4980512;28;20026;-94
2021/11/22 04:52:17;;;;;;;4.05;0.75;;;3.60;99.90;;;;;;4979892;28;20076;-94
2021/11/22 04:54:44;;;;;;;6.45;1.02;;;3.60;99.90;;;;;;4981555;28;20494;-94
2021/11/22 04:57:10;;;;;;;7.68;1.02;;;3.60;99.90;;;;;;4983120;28;20030;-94
2021/11/22 04:59:36;;;;;;;9.68;0.93;;;3.60;99.90;;;;;;4981278;28;20113;-95
2021/11/22 05:02:03;;;;;;;9.98;1.60;;;3.60;99.90;;;;;;4978221;28;20034;-94
2021/11/22 05:04:29;;;;;;;7.68;1.20;;;3.60;99.90;;;;;;4976056;28;20384;-94
2021/11/22 05:06:55;;;;;;;10.45;1.10;;;3.60;99.90;;;;;;4983015;28;20528;-95
2021/11/22 05:09:25;;;;;;;7.72;1.02;;;3.60;99.90;;;;;;4982362;28;20046;-95
2021/11/22 05:11:51;;;;;;;6.85;0.70;;;3.60;99.90;;;;;;4981843;28;20018;-95
2021/11/22 05:14:18;;;;;;;5.75;0.77;;;3.50;99.90;;;;;;4983472;28;20673;-95
2021/11/22 05:16:44;;;;;;;8.32;1.00;;;3.50;99.90;;;;;;4986477;28;20034;-96
2021/11/22 05:19:12;;;;;;;11.40;1.45;;;3.50;99.90;;;;;;4983979;28;20030;-94
2021/11/22 05:21:38;;;;;;;9.15;1.27;;;3.50;99.90;;;;;;4980057;28;20038;-94
2021/11/22 05:24:04;;;;;;;11.10;1.52;;;3.50;99.90;;;;;;4978338;28;20034;-93
2021/11/22 05:26:31;;;;;;;6.97;1.35;;;3.50;99.90;;;;;;4975547;28;20022;-95
2021/11/22 05:29:04;;;;;;;8.55;0.88;;;3.50;99.90;;;;;;4979347;28;20030;-94
2021/11/22 05:31:31;;;;;;;28.35;2.90;;;3.50;99.90;;;;;;4978928;28;20022;-95
2021/11/22 05:33:57;;;;;;;6.43;0.93;;;3.60;99.90;;;;;;4982518;28;20068;-95
2021/11/22 05:36:23;;;;;;;2.40;0.70;;;3.60;99.90;;;;;;4982596;28;20027;-94
2021/11/22 05:38:49;;;;;;;6.88;0.70;;;3.50;99.90;;;;;;4994375;28;20032;-95
2021/11/22 05:41:15;;;;;;;7.78;0.90;;;3.50;99.90;;;;;;4980636;28;20044;-95
2021/11/22 05:43:41;;;;;;;9.25;0.85;;;3.50;99.90;;;;;;4981056;28;20030;-96
2021/11/22 05:46:10;;;;;;;5.45;0.70;;;3.50;99.90;;;;;;4980385;28;20053;-94
2021/11/22 05:48:36;;;;;;;6.07;0.75;;;3.50;99.90;;;;;;4980385;28;20050;-95
2021/11/22 05:51:05;;;;;;;8.52;1.02;;;3.60;99.90;;;;;;4978965;28;20278;-93
2021/11/22 05:53:35;;;;;;;5.38;1.58;;;3.50;99.90;;;;;;4971442;28;20018;-93
2021/11/22 05:56:03;;;;;;;8.00;1.33;;;3.60;99.90;;;;;;4978628;28;20033;-93
2021/11/22 05:58:31;;;;;;;11.38;1.15;;;3.60;99.90;;;;;;4976257;28;20069;-94
2021/11/22 06:01:02;;;;;;;5.38;0.75;;;3.50;99.90;;;;;;4978805;28;20477;-94
2021/11/22 06:03:27;;;;;;;;;;;3.50;99.90;;;;;;4979770;28;20037;-93
2021/11/22 06:05:53;;;;;;;6.13;1.00;;;3.50;99.90;;;;;;4979461;28;19910;-94
2021/11/22 06:08:20;;;;;;;10.55;1.25;;;3.50;99.90;;;;;;4978736;28;20399;-94
2021/11/22 06:10:46;;;;;;;10.18;1.13;;;3.50;99.90;;;;;;4977709;28;20042;-94
2021/11/22 06:13:12;;;;;;;6.35;0.90;;;3.50;99.90;;;;;;4978686;28;20112;-94
2021/11/22 06:15:39;;;;;;;6.90;0.90;;;3.50;99.90;;;;;;4979455;28;20524;-93
2021/11/22 06:18:05;;;;;;;6.78;0.70;;;3.50;99.90;;;;;;4981839;28;20022;-94
2021/11/22 06:20:34;;;;;;;9.00;1.90;;;3.60;99.90;;;;;;4978805;28;20426;-92
2021/11/22 06:23:00;;;;;;;4.20;1.10;;;3.50;99.90;;;;;;4976272;28;20042;-94
2021/11/22 06:25:26;;;;;;;9.98;1.25;;;3.50;99.90;;;;;;4976963;28;20041;-93
2021/11/22 06:27:51;;;;;;;8.32;1.15;;;3.50;99.90;;;;;;4977680;28;20414;-93
2021/11/22 06:30:18;;;;;;;17.02;3.05;;;3.50;99.90;;;;;;4981807;28;20026;-94
2021/11/22 06:32:43;;;;;;;10.40;2.10;;;3.60;99.90;;;;;;4979106;28;20076;-94
2021/11/22 06:35:09;;;;;;;11.35;1.38;;;3.60;99.90;;;;;;4973344;28;20105;-93
2021/11/22 06:37:35;;;;;;;24.52;3.10;;;3.60;99.90;;;;;;4976973;28;20029;-93
2021/11/22 06:40:04;;;;;;;8.63;1.50;;;3.60;99.90;;;;;;4977810;28;20034;-95
2021/11/22 06:42:30;;;;;;;7.25;1.50;;;3.60;99.90;;;;;;4980544;28;20030;-94
2021/11/22 06:44:56;;;;;;;8.13;2.28;;;3.60;99.90;;;;;;4988995;28;20045;-94
2021/11/22 06:47:24;;;;;;;9.57;1.92;;;3.60;99.90;;;;;;4988413;28;20368;-94
2021/11/22 06:49:50;;;;;;;7.88;1.95;;;3.60;99.90;;;;;;4991242;28;20022;-95
2021/11/22 06:52:20;;;;;;;8.38;1.70;;;3.50;99.90;;;;;;4995784;28;20463;-95
2021/11/22 06:54:46;;;;;;;8.32;1.45;;;3.60;99.90;;;;;;4992845;28;20022;-93
2021/11/22 06:57:14;;;;;;;9.65;1.73;;;3.60;99.90;;;;;;4988073;28;20040;-94
2021/11/22 06:59:40;;;;;;;17.65;1.67;;;3.60;99.90;;;;;;4981371;28;20398;-95
2021/11/22 07:02:12;;;;;;;7.63;1.85;;;3.60;99.90;;;;;;4981218;28;20022;-95
2021/11/22 07:04:38;;;;;;;10.07;1.75;;;3.60;99.90;;;;;;4979462;28;20030;-93
2021/11/22 07:07:04;;;;;;;12.30;1.92;;;3.60;99.90;;;;;;4979504;28;20042;-94
2021/11/22 07:09:30;;;;;;;15.43;1.70;;;3.60;99.90;;;;;;4979024;28;20046;-93
2021/11/22 07:11:55;;;;;;;9.27;1.58;;;3.60;99.90;;;;;;4980179;28;20053;-94
2021/11/22 07:14:22;;;;;;;10.98;1.85;;;3.70;99.90;;;;;;4980610;28;20019;-94
2021/11/22 07:16:49;;;;;;;6.97;1.10;;;3.70;99.90;;;;;;4980716;28;20114;-95
2021/11/22 07:19:15;;;;;;;8.30;2.45;;;3.70;99.90;;;;;;4980155;28;20038;-93
2021/11/22 07:21:41;;;;;;;9.50;2.10;;;3.70;99.90;;;;;;4979590;28;20022;-94
2021/11/22 07:24:07;;;;;;;13.80;2.42;;;3.70;99.90;;;;;;4980801;28;20022;-95
2021/11/22 07:26:34;;;;;;;17.02;2.95;;;3.70;99.90;;;;;;4984825;28;20112;-95
2021/11/22 07:29:00;;;;;;;13.05;3.17;;;3.70;99.90;;;;;;4984055;28;20058;-95
2021/11/22 07:31:26;;;;;;;13.02;1.90;;;3.70;99.90;;;;;;4986169;28;20018;-94
2021/11/22 07:33:55;;;;;;;10.57;1.80;;;3.80;99.90;;;;;;4972284;28;20093;-94
2021/11/22 07:36:21;;;;;;;8.57;2.05;;;3.80;99.90;;;;;;4982962;28;20027;-94
2021/11/22 07:38:47;;;;;;;4.57;1.58;;;3.80;99.90;;;;;;4985522;28;20098;-95
2021/11/22 07:41:17;;;;;;;19.73;1.90;;;3.80;99.90;;;;;;4985384;28;20029;-95
2021/11/22 07:43:43;;;;;;;10.65;2.15;;;3.80;99.90;;;;;;4987208;28;20035;-94
2021/11/22 07:46:10;;;;;;;8.93;1.27;;;3.80;99.90;;;;;;4981299;28;20030;-95
2021/11/22 07:48:36;;;;;;;8.18;1.52;;;3.80;99.90;;;;;;5016150;28;20038;-94
2021/11/22 07:51:03;;;;;;;7.50;1.20;;;3.90;99.90;;;;;;4990661;28;20113;-96
2021/11/22 07:53:30;;;;;;;9.35;2.58;;;3.90;99.90;;;;;;5004079;28;20022;-95
2021/11/22 07:55:59;;;;;;;8.88;1.00;;;3.90;99.90;;;;;;4986988;28;20112;-96
2021/11/22 07:58:28;;;;;;;5.13;1.02;;;3.90;99.90;;;;;;4985849;28;20168;-95
2021/11/22 08:00:54;;;;;;;7.95;1.27;;;3.90;99.90;;;;;;4990809;28;20053;-95
2021/11/22 08:03:20;;;;;;;8.32;1.30;;;3.90;99.90;;;;;;4985217;28;20049;-95
2021/11/22 08:05:48;;;;;;;8.98;1.45;;;3.90;99.90;;;;;;4985462;28;20014;-94
2021/11/22 08:08:22;;;;;;;16.15;1.55;;;3.90;99.90;;;;;;4993788;28;20054;-95
2021/11/22 08:13:39;;;;;;;7.80;1.17;;;3.90;99.90;;;;;;5018790;28;20030;-94
2021/11/22 08:18:58;;;;;;;6.30;1.02;;;3.90;99.90;;;;;;5009911;28;20400;-94
2021/11/22 08:21:24;;;;;;;2.47;0.68;;;4.00;99.90;;;;;;4997239;28;20026;-94
2021/11/22 08:23:53;;;;;;;7.25;1.35;;;3.90;99.90;;;;;;4992363;28;20042;-94
2021/11/22 08:26:19;;;;;;;5.55;1.00;;;4.00;99.90;;;;;;4980147;28;20034;-94
2021/11/22 08:28:48;;;;;;;9.18;1.10;;;4.00;99.90;;;;;;4992106;28;20038;-94
2021/11/22 08:31:21;;;;;;;5.60;1.20;;;4.00;99.90;;;;;;5000811;28;20018;-95
2021/11/22 08:33:47;;;;;;;4.47;0.90;;;4.00;99.90;;;;;;4983884;28;20023;-95
2021/11/22 08:36:13;;;;;;;12.25;1.25;;;4.10;99.90;;;;;;4984022;28;20038;-94
2021/11/22 08:38:46;;;;;;;11.63;1.08;;;4.10;99.90;;;;;;5002659;28;20045;-95
2021/11/22 08:41:12;;;;;;;5.55;0.90;;;4.10;99.90;;;;;;4985258;28;20480;-95
2021/11/22 08:43:38;;;;;;;5.20;0.90;;;4.20;99.90;;;;;;4986127;28;20117;-94
2021/11/22 08:46:07;;;;;;;6.35;0.98;;;4.20;99.90;;;;;;4995619;28;20053;-95
2021/11/22 08:57:18;;;;;;;9.52;1.77;;;4.50;99.90;;;;;;4949913;29;20104;-95
2021/11/22 08:59:45;;;;;;;6.53;1.15;;;4.50;99.90;;;;;;4934762;29;20035;-94
2021/11/22 09:02:11;;;;;;;9.65;0.90;;;4.60;99.90;;;;;;4951659;29;20064;-95
2021/11/22 09:04:39;;;;;;;8.88;0.90;;;4.60;99.90;;;;;;4933147;29;20050;-95
2021/11/22 09:07:07;;;;;;;9.05;1.00;;;4.70;99.90;;;;;;4929896;29;20028;-93
2021/11/22 09:09:33;;;;;;;7.45;1.35;;;4.80;99.90;;;;;;4928755;29;20043;-96
2021/11/22 09:11:58;;;;;;;12.15;1.83;;;4.90;99.90;;;;;;4945809;29;20038;-93
2021/11/22 09:14:24;;;;;;;5.78;0.93;;;5.10;99.90;;;;;;4925222;29;20111;-94
2021/11/22 09:16:50;;;;;;;11.77;1.33;;;5.20;99.90;;;;;;4941854;29;20521;-94
2021/11/22 09:19:16;;;;;;;8.57;1.00;;;5.30;99.90;;;;;;4922666;29;20036;-94
2021/11/22 09:21:43;;;;;;;8.63;1.00;;;5.50;99.90;;;;;;4938405;29;20071;-93
2021/11/22 09:24:09;;;;;;;6.72;1.08;;;5.50;99.90;;;;;;4936353;29;20043;-95
2021/11/22 09:26:35;;;;;;;11.88;1.27;;;5.50;99.90;;;;;;4936656;29;20059;-93
2021/11/22 09:29:02;;;;;;;6.85;0.95;;;5.50;99.90;;;;;;4952438;29;20031;-93
2021/11/22 09:31:28;;;;;;;13.27;1.75;;;5.50;99.90;;;;;;4934142;29;20027;-94
2021/11/22 09:33:54;;;;;;;4.43;0.98;;;5.50;99.90;;;;;;4930387;29;20028;-93
2021/11/22 09:36:23;;;;;;;6.07;1.40;;;5.40;99.90;;;;;;4931439;29;20535;-94
2021/11/22 09:38:50;;;;;;;10.75;1.63;;;5.40;99.90;;;;;;4929207;29;20120;-93
2021/11/22 09:41:17;;;;;;;12.13;1.52;;;5.50;99.90;;;;;;4930962;29;20060;-94
2021/11/22 09:43:45;;;;;;;7.35;1.20;;;5.50;99.90;;;;;;4932407;29;20031;-95
2021/11/22 09:46:11;;;;;;;9.23;1.67;;;5.60;99.90;;;;;;4929921;29;20537;-93
2021/11/22 09:48:37;;;;;;;11.48;1.63;;;5.70;99.90;;;;;;4927442;29;20529;-94
2021/11/22 09:51:04;;;;;;;5.80;0.90;;;5.90;99.90;;;;;;4927505;29;20016;-94
2021/11/22 09:53:30;;;;;;;3.65;1.02;;;6.00;99.90;;;;;;4939007;29;20026;-94
2021/11/22 09:55:56;;;;;;;6.53;1.30;;;6.20;99.90;;;;;;4941324;29;20106;-94
2021/11/22 09:58:22;;;;;;;13.10;1.20;;;6.40;99.90;;;;;;4937600;29;20550;-94
2021/11/22 10:00:51;;;;;;;7.63;0.93;;;6.50;99.90;;;;;;4941441;29;20028;-94
2021/11/22 10:03:25;;;;;;;5.97;1.10;;;6.70;99.90;;;;;;4942351;29;20485;-95
2021/11/22 10:06:02;;;;;;;7.30;1.38;;;6.70;99.90;;;;;;4944706;29;20038;-95
2021/11/22 10:08:36;;;;;;;5.95;1.08;;;6.70;99.90;;;;;;4942303;29;20020;-94
2021/11/22 10:11:01;;;;;;;8.10;1.23;;;6.70;99.90;;;;;;4934362;29;20024;-94
2021/11/22 10:13:37;;;;;;;12.98;1.30;;;6.60;99.90;;;;;;4937585;29;20052;-94
2021/11/22 10:16:12;;;;;;;8.57;2.72;;;6.60;99.90;;;;;;4937638;29;20031;-93
2021/11/22 10:18:59;;;;;;;9.32;1.02;;;6.50;99.90;;;;;;4959723;29;20035;-95
2021/11/22 10:21:36;;;;;;;8.80;1.75;;;6.50;99.90;;;;;;4938425;29;20024;-94
2021/11/22 10:24:04;;;;;;;7.03;1.10;;;6.50;99.90;;;;;;4938540;29;20130;-95
2021/11/22 10:26:51;;;;;;;11.60;1.25;;;6.50;99.90;;;;;;4936373;29;20048;-94
2021/11/22 10:29:34;;;;;;;6.75;1.15;;;6.70;99.90;;;;;;4935819;29;20019;-96
2021/11/22 10:32:03;;;;;;;5.63;0.90;;;7.10;99.90;;;;;;4934221;29;20028;-95
2021/11/22 10:34:35;;;;;;;13.52;1.48;;;7.50;99.90;;;;;;4935379;29;20083;-94
2021/11/22 10:37:06;;;;;;;5.30;1.05;;;8.00;99.90;;;;;;4932477;29;20027;-94
2021/11/22 10:39:33;;;;;;;9.30;1.10;;;8.50;99.90;;;;;;4932709;29;20531;-94
2021/11/22 10:41:59;;;;;;;4.32;0.70;;;9.00;99.90;;;;;;4931895;29;20032;-95
2021/11/22 10:44:31;;;;;;;4.20;0.75;;;9.30;99.90;;;;;;4929739;29;20035;-94
2021/11/22 10:47:10;;;;;;;8.57;0.80;;;9.60;99.90;;;;;;4929907;29;20072;-94
2021/11/22 10:49:53;;;;;;;3.15;0.73;;;9.80;99.90;;;;;;4930390;29;20039;-94
2021/11/22 10:52:29;;;;;;;9.57;1.00;;;9.90;99.90;;;;;;4930283;29;20043;-94
2021/11/22 10:55:00;;;;;;;3.75;1.00;;;10.20;99.90;;;;;;4930409;29;20032;-95
2021/11/22 10:57:44;;;;;;;6.57;0.98;;;10.40;99.90;;;;;;4933111;29;20028;-95
2021/11/22 11:00:25;;;;;;;5.68;1.08;;;10.70;99.90;;;;;;4937769;29;20020;-95
2021/11/22 11:02:56;;;;;;;8.07;2.22;;;11.00;99.90;;;;;;4936686;29;20508;-95
2021/11/22 11:05:34;;;;;;;5.68;0.88;;;11.30;99.90;;;;;;4933136;29;20024;-95
2021/11/22 11:08:08;;;;;;;4.88;1.17;;;11.60;99.90;;;;;;4933809;29;20126;-96
2021/11/22 11:10:35;;;;;;;6.45;0.95;;;11.90;99.90;;;;;;4951475;29;20019;-95
2021/11/22 11:13:03;;;;;;;8.07;0.80;;;12.00;99.90;;;;;;4930824;29;20028;-96
2021/11/22 11:15:29;;;;;;;4.78;0.95;;;12.10;99.90;;;;;;4941912;29;20468;-95
2021/11/22 11:17:56;;;;;;;8.65;1.00;;;12.20;99.90;;;;;;4942742;28;20086;-94
2021/11/22 11:20:23;;;;;;;4.72;0.82;;;12.30;99.90;;;;;;4942847;29;20038;-96
2021/11/22 11:22:51;;;;;;;4.18;0.90;;;12.50;99.90;;;;;;4943333;29;20045;-95
2021/11/22 11:25:21;;;;;;;3.03;0.75;;;12.80;99.20;;;;;;4938991;29;20027;-95
2021/11/22 11:27:48;;;;;;;5.40;0.98;;;13.10;97.90;;;;;;4944084;29;20050;-95
2021/11/22 11:30:17;;;;;;;8.32;2.17;;;13.40;96.90;;;;;;4927477;29;20024;-95
2021/11/22 11:32:44;;;;;;;7.50;1.02;;;13.50;95.30;;;;;;4946968;29;20019;-96
2021/11/22 11:35:17;;;;;;;5.40;1.33;;;13.60;94.50;;;;;;4941533;29;20046;-95
2021/11/22 11:38:04;;;;;;;7.13;1.33;;;13.70;93.70;;;;;;4948376;29;20028;-96
2021/11/22 11:40:53;;;;;;;5.95;1.40;;;13.80;93.20;;;;;;4938752;29;20030;-95
2021/11/22 11:43:44;;;;;;;4.30;1.23;;;13.90;92.30;;;;;;4941456;29;20127;-96
2021/11/22 11:46:35;;;;;;;3.33;0.80;;;13.80;91.50;;;;;;4940855;29;21384;-95
2021/11/22 11:49:12;;;;;;;5.45;0.82;;;13.80;91.10;;;;;;4947859;29;20493;-95
2021/11/22 11:51:48;;;;;;;6.70;0.90;;;13.90;90.80;;;;;;4933321;29;20028;-95
2021/11/22 11:54:13;;;;;;;10.85;1.75;;;13.80;90.50;;;;;;4938084;29;20034;-95
2021/11/22 11:56:47;;;;;;;10.20;1.15;;;13.60;90.20;;;;;;4954483;29;20485;-96
2021/11/22 11:59:36;;;;;;;5.90;0.80;;;13.20;90.20;;;;;;4939163;29;20029;-96
2021/11/22 12:02:09;;;;;;;2.28;0.55;;;12.70;90.30;;;;;;4937929;29;20031;-95
2021/11/22 12:04:50;;;;;;;5.50;0.70;;;12.40;90.90;;;;;;4937000;29;20560;-94
2021/11/22 12:07:34;;;;;;;2.60;0.77;;;12.40;91.60;;;;;;4933480;29;20066;-95
2021/11/22 12:10:23;;;;;;;5.32;1.58;;;12.80;91.80;;;;;;4930349;29;20035;-95
2021/11/22 12:12:57;;;;;;;3.60;0.90;;;13.40;91.10;;;;;;4943604;29;20027;-95
2021/11/22 12:15:30;;;;;;;5.32;0.80;;;14.10;90.10;;;;;;4936908;29;20046;-96
2021/11/22 12:18:00;;;;;;;4.50;1.15;;;14.60;88.10;;;;;;4938535;29;20031;-95
2021/11/22 12:20:25;;;;;;;4.30;1.10;;;14.80;86.00;;;;;;4940283;29;20031;-95
2021/11/22 12:23:01;;;;;;;4.68;1.15;;;15.00;84.50;;;;;;4938148;29;20121;-95
2021/11/22 12:25:39;;;;;;;4.75;0.98;;;15.20;82.70;;;;;;4949941;29;20027;-96
2021/11/22 12:28:22;;;;;;;6.97;1.25;;;15.30;81.10;;;;;;4938883;29;20035;-96
2021/11/22 12:31:11;;;;;;;3.55;1.15;;;15.10;80.10;;;;;;4947140;29;20023;-95
2021/11/22 12:34:01;;;;;;;3.92;1.00;;;14.70;80.20;;;;;;4945140;29;20111;-96
2021/11/22 12:36:29;;;;;;;3.55;1.08;;;14.60;80.80;;;;;;4942697;29;20031;-95
2021/11/22 12:39:05;;;;;;;4.53;0.73;;;14.70;81.00;;;;;;4947420;29;20038;-94
2021/11/22 12:41:33;;;;;;;5.13;0.90;;;14.90;80.10;;;;;;4938038;29;20035;-95
2021/11/22 12:44:11;;;;;;;3.53;1.02;;;14.90;78.70;;;;;;4942729;29;20039;-95
2021/11/22 12:46:49;;;;;;;3.78;0.85;;;14.40;77.90;;;;;;4939751;29;20043;-95
2021/11/22 12:49:26;;;;;;;5.03;0.90;;;13.90;78.70;;;;;;4943774;29;20027;-95
2021/11/22 12:51:52;;;;;;;2.83;0.75;;;13.50;79.70;;;;;;4945504;29;20055;-95
2021/11/22 12:54:19;;;;;;;4.82;0.70;;;13.40;80.50;;;;;;4949546;29;20039;-96
2021/11/22 12:56:46;;;;;;;3.67;0.90;;;13.60;80.70;;;;;;4949822;29;20122;-94
2021/11/22 12:59:18;;;;;;;2.70;0.60;;;14.00;80.40;;;;;;4949656;29;20042;-95
2021/11/22 13:01:57;;;;;;;7.68;1.65;;;14.50;79.20;;;;;;4949369;29;20020;-94
2021/11/22 13:04:55;;;;;;;2.20;0.70;;;14.80;78.00;;;;;;4951285;29;20046;-96
2021/11/22 13:07:33;;;;;;;3.55;0.60;;;15.20;76.50;;;;;;4954502;29;20035;-96
2021/11/22 13:10:34;;;;;;;3.15;0.70;;;15.60;75.40;;;;;;4956924;29;20031;-95
2021/11/22 13:13:14;;;;;;;4.70;0.70;;;15.90;74.30;;;;;;4955259;29;20035;-96
2021/11/22 13:15:54;;;;;;;5.47;1.00;;;16.10;73.50;;;;;;4951072;29;20114;-95
2021/11/22 13:18:26;;;;;;;2.33;0.60;;;16.40;72.80;;;;;;4949554;29;20074;-96
2021/11/22 13:20:53;;;;;;;4.95;0.88;;;16.60;71.60;;;;;;4952168;29;20038;-95